Time;durP1;ratioP1;P1;durP2;ratioP2;P2;SDS_P1;SDS_P2;PMS_P1;PMS_P2;Temp;Humidity;BMP_temperature;BMP_pressure;BME280_temperature;BME280_humidity;BME280_pressure;Samples;Min_cycle;Max_cycle;Signal;HPM_P1;HPM_P2
2021/11/30 00:03:48;;;;;;;7.53;4.13;;;;;;;;;;10443262;28;20110;-70
2021/11/30 00:08:57;;;;;;;;;;;;;;;;;;10445490;28;20570;-70
2021/11/30 00:14:00;;;;;;;6.03;3.07;;;;;;;;;;10443572;28;20011;-70
2021/11/30 00:19:04;;;;;;;3.27;2.10;;;;;;;;;;10438945;28;20420;-70
2021/11/30 00:24:07;;;;;;;;;;;;;;;;;;10442789;28;20038;-68
2021/11/30 00:29:09;;;;;;;5.97;2.50;;;;;;;;;;10444317;28;19956;-69
2021/11/30 00:34:13;;;;;;;9.03;2.23;;;;;;;;;;10443536;28;20045;-70
2021/11/30 00:39:16;;;;;;;;;;;;;;;;;;10440868;28;20613;-70
2021/11/30 00:44:21;;;;;;;3.60;1.83;;;;;;;;;;10441957;28;19932;-70
2021/11/30 00:49:26;;;;;;;4.67;2.63;;;;;;;;;;10442440;28;20126;-71
2021/11/30 00:54:29;;;;;;;2.90;2.00;;;;;;;;;;10441814;28;20079;-69
2021/11/30 00:59:32;;;;;;;2.70;1.23;;;;;;;;;;10443032;28;20053;-70
2021/11/30 01:04:46;;;;;;;;;;;;;;;;;;;;;
2021/11/30 01:09:50;;;;;;;1.73;1.20;;;;;;;;;;10443374;28;20045;-69
2021/11/30 01:14:52;;;;;;;3.87;2.27;;;;;;;;;;10445079;28;20083;-68
2021/11/30 01:19:57;;;;;;;2.60;1.40;;;;;;;;;;10435640;28;20041;-68
2021/11/30 01:24:59;;;;;;;4.53;2.33;;;;;;;;;;10442939;28;20651;-69
2021/11/30 01:30:03;;;;;;;6.90;1.40;;;;;;;;;;10443276;28;20067;-68
2021/11/30 01:35:08;;;;;;;3.92;2.42;;;;;;;;;;10442449;28;20130;-69
2021/11/30 01:40:13;;;;;;;6.30;3.30;;;;;;;;;;10439681;28;20036;-69
2021/11/30 01:45:29;;;;;;;3.83;2.17;;;;;;;;;;10434757;28;20115;-69
2021/11/30 01:50:35;;;;;;;2.90;1.47;;;;;;;;;;10441235;28;20045;-70
2021/11/30 01:55:37;;;;;;;5.30;3.07;;;;;;;;;;10443394;28;20067;-69
2021/11/30 02:00:41;;;;;;;5.87;3.10;;;;;;;;;;10436589;28;20094;-70
2021/11/30 02:05:45;;;;;;;3.08;1.75;;;;;;;;;;10429603;28;20045;-68
2021/11/30 02:10:49;;;;;;;;;;;;;;;;;;10439359;28;20045;-69
2021/11/30 02:15:54;;;;;;;5.83;2.80;;;;;;;;;;10441148;28;19932;-68
2021/11/30 02:21:02;;;;;;;3.83;1.73;;;;;;;;;;10446416;28;20404;-70
2021/11/30 02:26:25;;;;;;;1.83;1.20;;;;;;;;;;10435989;28;20462;-72
2021/11/30 02:31:31;;;;;;;4.33;2.53;;;;;;;;;;10437845;28;20051;-69
2021/11/30 02:36:48;;;;;;;3.50;1.60;;;;;;;;;;10445403;28;20065;-70
2021/11/30 02:41:52;;;;;;;3.53;2.13;;;;;;;;;;10449676;28;20124;-70
2021/11/30 02:46:57;;;;;;;4.43;1.93;;;;;;;;;;10446051;28;20424;-70
2021/11/30 02:52:05;;;;;;;4.60;2.90;;;;;;;;;;10449238;28;20135;-71
2021/11/30 02:57:09;;;;;;;3.40;1.97;;;;;;;;;;10447569;28;20041;-71
2021/11/30 03:02:16;;;;;;;3.08;1.60;;;;;;;;;;10447102;28;20105;-69
2021/11/30 03:07:21;;;;;;;4.47;3.07;;;;;;;;;;10446514;28;20151;-71
2021/11/30 03:12:24;;;;;;;5.97;3.40;;;;;;;;;;10449394;28;20580;-69
2021/11/30 03:17:27;;;;;;;2.70;1.53;;;;;;;;;;10441232;28;20110;-70
2021/11/30 03:22:31;;;;;;;4.13;2.67;;;;;;;;;;10442951;28;20504;-69
2021/11/30 03:27:35;;;;;;;6.83;3.10;;;;;;;;;;10443575;28;20098;-70
2021/11/30 03:37:59;;;;;;;5.73;3.17;;;;;;;;;;10443116;28;20214;-70
2021/11/30 03:43:01;;;;;;;;;;;;;;;;;;10448356;28;20106;-69
2021/11/30 03:48:05;;;;;;;3.23;1.60;;;;;;;;;;10443441;28;19959;-70
2021/11/30 03:53:09;;;;;;;4.17;2.50;;;;;;;;;;10445429;28;20084;-70
2021/11/30 03:58:12;;;;;;;3.28;1.75;;;;;;;;;;10443863;28;20190;-69
2021/11/30 04:03:15;;;;;;;4.83;2.27;;;;;;;;;;10442798;28;20056;-69
2021/11/30 04:08:19;;;;;;;3.57;1.90;;;;;;;;;;10443385;28;20434;-68
2021/11/30 04:13:22;;;;;;;2.73;1.90;;;;;;;;;;10446474;28;20059;-68
2021/11/30 04:18:45;;;;;;;2.77;1.57;;;;;;;;;;10442493;28;20065;-68
2021/11/30 04:23:49;;;;;;;2.97;1.80;;;;;;;;;;10441723;28;20037;-69
2021/11/30 04:28:52;;;;;;;;;;;;;;;;;;10446978;28;20094;-69
2021/11/30 04:33:55;;;;;;;4.93;2.90;;;;;;;;;;10444032;28;19924;-69
2021/11/30 04:38:59;;;;;;;3.13;1.87;;;;;;;;;;10444556;28;20045;-70
2021/11/30 04:44:03;;;;;;;;;;;;;;;;;;10446868;28;20074;-69
2021/11/30 04:49:12;;;;;;;2.70;1.42;;;;;;;;;;10442396;28;19921;-68
2021/11/30 04:54:16;;;;;;;1.60;1.00;;;;;;;;;;10446846;28;20045;-70
2021/11/30 04:59:20;;;;;;;4.50;1.95;;;;;;;;;;10443195;28;20089;-70
2021/11/30 05:04:23;;;;;;;3.93;2.30;;;;;;;;;;10444045;28;20056;-70
2021/11/30 05:09:27;;;;;;;2.63;1.27;;;;;;;;;;10440954;28;20307;-70
2021/11/30 05:14:29;;;;;;;;;;;;;;;;;;10438596;28;20033;-69
2021/11/30 05:19:32;;;;;;;6.73;2.37;;;;;;;;;;10443238;28;20501;-70
2021/11/30 05:24:36;;;;;;;2.63;1.43;;;;;;;;;;10439286;28;20045;-71
2021/11/30 05:29:39;;;;;;;;;;;;;;;;;;10444509;28;20155;-71
2021/11/30 05:34:42;;;;;;;2.40;1.30;;;;;;;;;;10439561;28;20353;-70
2021/11/30 05:39:46;;;;;;;3.53;1.80;;;;;;;;;;10438767;28;20108;-71
2021/11/30 05:44:48;;;;;;;3.35;1.38;;;;;;;;;;10438881;28;20379;-71
2021/11/30 05:49:51;;;;;;;2.67;1.47;;;;;;;;;;10443308;28;20524;-71
2021/11/30 05:54:55;;;;;;;3.73;1.63;;;;;;;;;;10448646;28;20047;-71
2021/11/30 06:00:00;;;;;;;2.00;1.07;;;;;;;;;;10437096;28;20045;-70
2021/11/30 06:05:03;;;;;;;5.63;2.90;;;;;;;;;;10437707;28;20037;-70
2021/11/30 06:10:08;;;;;;;4.67;2.60;;;;;;;;;;10454710;28;20040;-71
2021/11/30 06:15:11;;;;;;;2.53;1.47;;;;;;;;;;10439305;28;20350;-71
2021/11/30 06:20:15;;;;;;;5.60;2.57;;;;;;;;;;10443530;28;20040;-71
2021/11/30 06:25:19;;;;;;;3.28;2.03;;;;;;;;;;10440390;28;20041;-74
2021/11/30 06:30:22;;;;;;;3.47;2.22;;;;;;;;;;10439834;28;20041;-71
2021/11/30 06:35:25;;;;;;;3.93;2.23;;;;;;;;;;10438545;28;20048;-69
2021/11/30 06:40:29;;;;;;;7.13;3.13;;;;;;;;;;10439669;28;20048;-70
2021/11/30 06:45:32;;;;;;;;;;;;;;;;;;10434564;28;20041;-69
2021/11/30 06:50:34;;;;;;;5.33;2.27;;;;;;;;;;10474866;28;20346;-71
2021/11/30 06:55:39;;;;;;;6.07;2.87;;;;;;;;;;10437854;28;20083;-67
2021/11/30 07:00:42;;;;;;;3.80;1.80;;;;;;;;;;10442742;28;20059;-70
2021/11/30 07:05:46;;;;;;;3.23;1.97;;;;;;;;;;10438593;28;20473;-70
2021/11/30 07:10:52;;;;;;;2.25;1.55;;;;;;;;;;10439351;28;20724;-69
2021/11/30 07:15:55;;;;;;;6.40;1.90;;;;;;;;;;10439896;28;20045;-70
2021/11/30 07:20:59;;;;;;;7.38;2.55;;;;;;;;;;10447599;28;20052;-68
2021/11/30 07:26:03;;;;;;;1.20;1.10;;;;;;;;;;10446087;28;20067;-70
2021/11/30 07:31:08;;;;;;;;;;;;;;;;;;10443134;28;20326;-65
2021/11/30 07:36:11;;;;;;;5.63;2.42;;;;;;;;;;10445640;28;20016;-69
2021/11/30 07:41:16;;;;;;;5.07;2.03;;;;;;;;;;10446584;28;20045;-72
2021/11/30 07:46:19;;;;;;;7.27;2.70;;;;;;;;;;10440428;28;20489;-69
2021/11/30 07:51:22;;;;;;;3.73;1.77;;;;;;;;;;10441209;28;20076;-69
2021/11/30 07:56:26;;;;;;;7.50;2.53;;;;;;;;;;10449930;28;20037;-70
2021/11/30 08:01:28;;;;;;;;;;;;;;;;;;10445744;28;20077;-71
2021/11/30 08:06:31;;;;;;;4.83;2.00;;;;;;;;;;10468984;28;19999;-69
2021/11/30 08:11:35;;;;;;;2.67;1.63;;;;;;;;;;10443935;28;20473;-69
2021/11/30 08:16:38;;;;;;;;;;;;;;;;;;10441729;28;20132;-69
2021/11/30 08:21:41;;;;;;;1.13;1.00;;;;;;;;;;10443197;28;20364;-69
2021/11/30 08:26:46;;;;;;;5.80;2.40;;;;;;;;;;10442774;28;20107;-69
2021/11/30 08:31:48;;;;;;;4.40;2.20;;;;;;;;;;10441143;28;20074;-70
2021/11/30 08:36:51;;;;;;;7.53;2.60;;;;;;;;;;10444828;28;20405;-71
2021/11/30 08:41:55;;;;;;;3.37;1.10;;;;;;;;;;10443927;28;20056;-69
2021/11/30 08:47:03;;;;;;;5.93;2.30;;;;;;;;;;10439945;28;20053;-68
2021/11/30 08:52:10;;;;;;;2.93;1.97;;;;;;;;;;10442034;28;20045;-70
2021/11/30 08:57:15;;;;;;;9.93;3.03;;;;;;;;;;10440752;28;20041;-69
2021/11/30 09:02:18;;;;;;;7.20;3.27;;;;;;;;;;10439548;28;20378;-71
2021/11/30 09:07:21;;;;;;;6.33;3.10;;;;;;;;;;10442129;28;20038;-70
2021/11/30 09:12:26;;;;;;;8.53;2.60;;;;;;;;;;10445001;28;20036;-69
2021/11/30 09:17:30;;;;;;;5.77;3.60;;;;;;;;;;10470883;28;20041;-71
2021/11/30 09:22:33;;;;;;;5.45;1.52;;;;;;;;;;10444297;28;20476;-68
2021/11/30 09:27:37;;;;;;;4.43;2.40;;;;;;;;;;10445824;28;20400;-68
2021/11/30 09:32:40;;;;;;;4.43;2.03;;;;;;;;;;10434031;28;20052;-69
2021/11/30 09:37:44;;;;;;;3.75;1.98;;;;;;;;;;10429076;28;20071;-70
2021/11/30 09:42:49;;;;;;;3.53;1.47;;;;;;;;;;10441710;28;20055;-68
2021/11/30 09:47:52;;;;;;;5.90;1.40;;;;;;;;;;10440218;28;20040;-70
2021/11/30 09:52:56;;;;;;;3.57;1.10;;;;;;;;;;10440332;28;20036;-70
2021/11/30 09:58:00;;;;;;;3.43;1.70;;;;;;;;;;10437045;28;20047;-69
2021/11/30 10:03:03;;;;;;;2.10;0.93;;;;;;;;;;10437921;28;20131;-70
2021/11/30 10:08:08;;;;;;;4.03;1.47;;;;;;;;;;10437120;28;20033;-69
2021/11/30 10:13:13;;;;;;;3.58;1.88;;;;;;;;;;10438180;28;20041;-69
2021/11/30 10:18:17;;;;;;;5.77;1.93;;;;;;;;;;10440973;28;20076;-69
2021/11/30 10:23:22;;;;;;;1.85;1.15;;;;;;;;;;10443143;28;20110;-69
2021/11/30 10:28:28;;;;;;;4.00;1.50;;;;;;;;;;10442775;28;20404;-72
2021/11/30 10:33:33;;;;;;;1.87;1.20;;;;;;;;;;10460523;28;20411;-69
2021/11/30 10:38:37;;;;;;;1.03;0.67;;;;;;;;;;10442210;28;20049;-70
2021/11/30 10:43:43;;;;;;;4.03;1.80;;;;;;;;;;10471402;28;20485;-70
2021/11/30 10:48:46;;;;;;;2.20;0.97;;;;;;;;;;10438356;28;20053;-70
2021/11/30 10:53:50;;;;;;;2.30;1.40;;;;;;;;;;10441920;28;20127;-67
2021/11/30 10:58:55;;;;;;;3.88;1.38;;;;;;;;;;10447872;28;20421;-68
2021/11/30 11:04:02;;;;;;;3.20;1.50;;;;;;;;;;10446071;28;20073;-70
2021/11/30 11:09:05;;;;;;;1.77;1.33;;;;;;;;;;10446022;28;20037;-69
2021/11/30 11:14:20;;;;;;;3.03;1.13;;;;;;;;;;10441667;28;20037;-68
2021/11/30 11:19:37;;;;;;;0.90;0.80;;;;;;;;;;10449022;28;20128;-69
2021/11/30 11:24:42;;;;;;;0.93;0.80;;;;;;;;;;10445881;28;20045;-69
2021/11/30 11:29:46;;;;;;;1.10;0.90;;;;;;;;;;10444940;28;20041;-71
2021/11/30 11:34:49;;;;;;;;;;;;;;;;;;10446550;28;20049;-69
2021/11/30 11:39:52;;;;;;;1.77;1.10;;;;;;;;;;10435874;28;19925;-69
2021/11/30 11:44:57;;;;;;;2.63;1.00;;;;;;;;;;10439814;28;20067;-69
2021/11/30 11:50:10;;;;;;;1.30;1.03;;;;;;;;;;10454637;28;20111;-71
2021/11/30 11:55:13;;;;;;;1.77;0.87;;;;;;;;;;10469397;28;20064;-67
2021/11/30 12:00:19;;;;;;;2.40;0.80;;;;;;;;;;10441415;28;20167;-68
2021/11/30 12:05:39;;;;;;;2.93;0.90;;;;;;;;;;10433187;28;20450;-70
2021/11/30 12:10:42;;;;;;;1.93;1.20;;;;;;;;;;10446686;28;20059;-70
2021/11/30 12:15:57;;;;;;;2.07;0.90;;;;;;;;;;10440535;28;20403;-69
2021/11/30 12:21:10;;;;;;;1.90;1.00;;;;;;;;;;10424081;28;20065;-67
2021/11/30 12:26:34;;;;;;;1.90;1.17;;;;;;;;;;10441339;28;20037;-69
2021/11/30 12:31:41;;;;;;;1.92;0.88;;;;;;;;;;10444680;28;20049;-69
2021/11/30 12:36:45;;;;;;;2.67;1.10;;;;;;;;;;10426340;28;20492;-71
2021/11/30 12:41:50;;;;;;;4.18;1.08;;;;;;;;;;10436784;28;20091;-72
2021/11/30 12:46:55;;;;;;;2.00;0.90;;;;;;;;;;10437125;28;20061;-72
2021/11/30 12:52:12;;;;;;;1.83;1.10;;;;;;;;;;10443782;28;20442;-70
2021/11/30 12:57:19;;;;;;;5.73;1.13;;;;;;;;;;10433071;28;20059;-70
2021/11/30 13:02:25;;;;;;;2.67;1.03;;;;;;;;;;10431467;28;20053;-69
2021/11/30 13:07:28;;;;;;;1.20;0.67;;;;;;;;;;10432516;28;20602;-71
2021/11/30 13:12:32;;;;;;;2.33;0.80;;;;;;;;;;10442753;28;20045;-71
2021/11/30 13:17:35;;;;;;;;;;;;;;;;;;10439973;28;20056;-70
2021/11/30 13:22:40;;;;;;;1.97;0.90;;;;;;;;;;10437357;28;20423;-72
2021/11/30 13:28:04;;;;;;;2.70;1.00;;;;;;;;;;10435368;28;20116;-70
2021/11/30 13:33:08;;;;;;;2.53;1.00;;;;;;;;;;10440130;28;20407;-72
2021/11/30 13:38:14;;;;;;;1.10;1.00;;;;;;;;;;10440283;28;20144;-71
2021/11/30 13:43:19;;;;;;;2.30;1.27;;;;;;;;;;10435118;28;20945;-69
2021/11/30 13:48:22;;;;;;;1.57;0.73;;;;;;;;;;10445252;28;20120;-71
2021/11/30 13:53:28;;;;;;;1.95;1.10;;;;;;;;;;10441845;28;20150;-71
2021/11/30 13:58:42;;;;;;;2.07;1.13;;;;;;;;;;10446136;28;20123;-71
2021/11/30 14:03:46;;;;;;;4.10;1.00;;;;;;;;;;10445110;28;20048;-72
2021/11/30 14:08:50;;;;;;;1.70;1.00;;;;;;;;;;10454195;28;20086;-71
2021/11/30 14:13:53;;;;;;;1.30;0.73;;;;;;;;;;10438729;28;20048;-71
2021/11/30 14:18:58;;;;;;;4.63;0.93;;;;;;;;;;10443223;28;20145;-71
2021/11/30 14:24:00;;;;;;;;;;;;;;;;;;10442214;28;20083;-71
2021/11/30 14:29:06;;;;;;;2.67;1.43;;;;;;;;;;10448970;28;20249;-71
2021/11/30 14:34:15;;;;;;;2.40;1.10;;;;;;;;;;10448680;28;20045;-72
2021/11/30 14:39:22;;;;;;;2.33;1.00;;;;;;;;;;10436017;28;20103;-72
2021/11/30 14:44:31;;;;;;;1.97;0.90;;;;;;;;;;10448292;28;20056;-72
2021/11/30 14:49:37;;;;;;;0.80;0.67;;;;;;;;;;10446299;28;20072;-73
2021/11/30 14:54:39;;;;;;;4.47;1.37;;;;;;;;;;10445911;28;20102;-71
2021/11/30 14:59:44;;;;;;;1.23;0.80;;;;;;;;;;10447715;28;20033;-69
2021/11/30 15:04:47;;;;;;;1.88;0.85;;;;;;;;;;10440726;28;20451;-71
2021/11/30 15:09:50;;;;;;;2.60;0.90;;;;;;;;;;10443215;28;20413;-72
2021/11/30 15:14:54;;;;;;;2.03;0.90;;;;;;;;;;10448602;28;20056;-69
2021/11/30 15:19:57;;;;;;;1.47;0.70;;;;;;;;;;10435881;28;20113;-71
2021/11/30 15:25:02;;;;;;;1.80;0.90;;;;;;;;;;10445211;28;20041;-72
2021/11/30 15:30:08;;;;;;;4.00;1.03;;;;;;;;;;10437845;28;20041;-70
2021/11/30 15:35:12;;;;;;;2.30;0.90;;;;;;;;;;10446057;28;20044;-71
2021/11/30 15:40:15;;;;;;;1.20;0.70;;;;;;;;;;10433153;28;20417;-69
2021/11/30 15:45:20;;;;;;;1.07;0.93;;;;;;;;;;10438497;28;20282;-71
2021/11/30 15:50:22;;;;;;;;;;;;;;;;;;10469270;28;20052;-71
2021/11/30 15:55:31;;;;;;;2.63;0.83;;;;;;;;;;10439257;28;19932;-72
2021/11/30 16:00:36;;;;;;;2.63;0.90;;;;;;;;;;10447089;28;20037;-69
2021/11/30 16:05:39;;;;;;;1.20;0.80;;;;;;;;;;10432321;28;20071;-74
2021/11/30 16:10:42;;;;;;;0.73;0.43;;;;;;;;;;10441356;28;20056;-70
2021/11/30 16:15:46;;;;;;;1.40;0.70;;;;;;;;;;10441107;28;20044;-70
2021/11/30 16:20:49;;;;;;;;;;;;;;;;;;10429058;28;20413;-69
2021/11/30 16:25:51;;;;;;;;;;;;;;;;;;10437442;28;19950;-72
2021/11/30 16:30:56;;;;;;;0.98;0.63;;;;;;;;;;10434467;28;20418;-70
2021/11/30 16:35:59;;;;;;;1.27;0.90;;;;;;;;;;10440235;28;20129;-73
2021/11/30 16:41:02;;;;;;;0.90;0.60;;;;;;;;;;10430568;28;21529;-70
2021/11/30 16:46:07;;;;;;;1.35;1.00;;;;;;;;;;10433021;28;20827;-71
2021/11/30 16:51:10;;;;;;;2.00;1.10;;;;;;;;;;10438563;28;20045;-72
2021/11/30 16:56:13;;;;;;;1.03;0.67;;;;;;;;;;10438475;28;20056;-73
2021/11/30 17:01:17;;;;;;;1.13;0.50;;;;;;;;;;10437448;28;20040;-71
2021/11/30 17:06:20;;;;;;;1.13;0.70;;;;;;;;;;10441368;28;20399;-71
2021/11/30 17:11:23;;;;;;;1.65;0.73;;;;;;;;;;10436341;28;20437;-72
2021/11/30 17:16:30;;;;;;;2.00;0.87;;;;;;;;;;10440587;28;20083;-70
2021/11/30 17:21:40;;;;;;;1.43;0.63;;;;;;;;;;10433601;28;20075;-70
2021/11/30 17:26:49;;;;;;;1.40;1.00;;;;;;;;;;10439335;28;20118;-73
2021/11/30 17:31:51;;;;;;;;;;;;;;;;;;10441713;28;20400;-70
2021/11/30 17:36:54;;;;;;;;;;;;;;;;;;10441373;28;20332;-71
2021/11/30 17:41:57;;;;;;;;;;;;;;;;;;10445125;28;19924;-70
2021/11/30 17:46:59;;;;;;;;;;;;;;;;;;10438181;28;20406;-71
2021/11/30 17:52:02;;;;;;;;;;;;;;;;;;10467001;28;19925;-69
2021/11/30 17:57:08;;;;;;;2.43;1.07;;;;;;;;;;10434369;28;20522;-70
2021/11/30 18:02:11;;;;;;;1.43;0.80;;;;;;;;;;10420604;28;20249;-71
2021/11/30 18:07:14;;;;;;;2.30;1.30;;;;;;;;;;10429408;28;20131;-73
2021/11/30 18:12:19;;;;;;;0.50;0.50;;;;;;;;;;10418195;28;20072;-73
2021/11/30 18:17:24;;;;;;;1.00;0.80;;;;;;;;;;10430296;28;20870;-70
2021/11/30 18:22:27;;;;;;;7.17;2.20;;;;;;;;;;10438645;28;20540;-70
2021/11/30 18:27:31;;;;;;;2.03;0.90;;;;;;;;;;10440452;28;20453;-72
2021/11/30 18:32:34;;;;;;;1.73;0.90;;;;;;;;;;10441220;28;20040;-71
2021/11/30 18:37:37;;;;;;;1.97;0.90;;;;;;;;;;10434993;28;20041;-71
2021/11/30 18:42:57;;;;;;;1.10;0.47;;;;;;;;;;10434752;28;20490;-71
2021/11/30 18:48:00;;;;;;;1.50;0.87;;;;;;;;;;10438331;28;20048;-70
2021/11/30 18:53:04;;;;;;;3.13;0.93;;;;;;;;;;10446177;28;20041;-71
2021/11/30 18:58:08;;;;;;;2.08;1.13;;;;;;;;;;10437139;28;20465;-70
2021/11/30 19:03:12;;;;;;;0.50;0.47;;;;;;;;;;10439569;28;20041;-71
2021/11/30 19:08:17;;;;;;;1.43;0.80;;;;;;;;;;10437826;28;20448;-73
2021/11/30 19:13:21;;;;;;;0.65;0.40;;;;;;;;;;10439647;28;20063;-70
2021/11/30 19:18:24;;;;;;;1.23;0.80;;;;;;;;;;10445881;28;20045;-72
2021/11/30 19:23:27;;;;;;;1.30;0.60;;;;;;;;;;10443713;28;20385;-72
2021/11/30 19:28:33;;;;;;;0.97;0.50;;;;;;;;;;10445690;28;20053;-71
2021/11/30 19:33:38;;;;;;;1.13;0.70;;;;;;;;;;10449314;28;20049;-72
2021/11/30 19:38:43;;;;;;;0.80;0.53;;;;;;;;;;10438603;28;20106;-71
2021/11/30 19:43:48;;;;;;;0.67;0.47;;;;;;;;;;10446557;28;20683;-72
2021/11/30 19:48:52;;;;;;;1.27;0.70;;;;;;;;;;10433701;28;20481;-71
2021/11/30 19:53:56;;;;;;;0.20;0.20;;;;;;;;;;10446626;28;20045;-72
2021/11/30 19:59:01;;;;;;;0.63;0.27;;;;;;;;;;10448941;28;20065;-72
2021/11/30 20:09:29;;;;;;;0.38;0.30;;;;;;;;;;10444242;28;20024;-73
2021/11/30 20:14:35;;;;;;;0.97;0.20;;;;;;;;;;10436485;28;20049;-73
2021/11/30 20:19:38;;;;;;;0.50;0.50;;;;;;;;;;10436947;28;20424;-73
2021/11/30 20:24:41;;;;;;;0.40;0.20;;;;;;;;;;10437834;28;20420;-78
2021/11/30 20:29:45;;;;;;;1.13;0.53;;;;;;;;;;10444803;28;20487;-72
2021/11/30 20:34:55;;;;;;;0.43;0.40;;;;;;;;;;10445906;28;20045;-73
2021/11/30 20:39:58;;;;;;;;;;;;;;;;;;10438387;28;20064;-71
2021/11/30 20:45:04;;;;;;;0.35;0.30;;;;;;;;;;10439631;28;20417;-71
2021/11/30 20:50:08;;;;;;;0.40;0.30;;;;;;;;;;10443348;28;20377;-71
2021/11/30 20:55:11;;;;;;;0.43;0.43;;;;;;;;;;10436288;28;20120;-70
2021/11/30 21:00:15;;;;;;;0.57;0.40;;;;;;;;;;10443459;28;20414;-73
2021/11/30 21:05:18;;;;;;;1.10;0.40;;;;;;;;;;10438051;28;20438;-74
2021/11/30 21:10:22;;;;;;;0.53;0.40;;;;;;;;;;10443242;28;20112;-75
2021/11/30 21:15:28;;;;;;;0.52;0.20;;;;;;;;;;10448364;28;20353;-71
2021/11/30 21:20:32;;;;;;;0.65;0.47;;;;;;;;;;10443582;28;20535;-72
2021/11/30 21:25:35;;;;;;;0.55;0.38;;;;;;;;;;10443282;28;20059;-74
2021/11/30 21:30:40;;;;;;;0.23;0.23;;;;;;;;;;10440557;28;20037;-73
2021/11/30 21:35:43;;;;;;;0.33;0.33;;;;;;;;;;10445100;28;20359;-72
2021/11/30 21:40:53;;;;;;;0.20;0.20;;;;;;;;;;10440542;28;20423;-72
2021/11/30 21:45:58;;;;;;;0.00;0.00;;;;;;;;;;10438167;28;20120;-71
2021/11/30 21:51:01;;;;;;;0.10;0.10;;;;;;;;;;10442181;28;20526;-73
2021/11/30 21:56:05;;;;;;;0.38;0.30;;;;;;;;;;10442215;28;20041;-68
2021/11/30 22:01:09;;;;;;;0.47;0.40;;;;;;;;;;10436988;28;20064;-73
2021/11/30 22:06:12;;;;;;;0.70;0.33;;;;;;;;;;10433482;28;20417;-72
2021/11/30 22:11:15;;;;;;;0.30;0.30;;;;;;;;;;10437014;28;20123;-70
2021/11/30 22:16:21;;;;;;;0.20;0.20;;;;;;;;;;10438758;28;20049;-71
2021/11/30 22:21:24;;;;;;;0.20;0.13;;;;;;;;;;10440111;28;20397;-72
2021/11/30 22:26:27;;;;;;;1.00;0.40;;;;;;;;;;10439924;28;20102;-71
2021/11/30 22:31:29;;;;;;;;;;;;;;;;;;10441949;28;20033;-70
2021/11/30 22:36:32;;;;;;;;;;;;;;;;;;10444470;28;19925;-74
2021/11/30 22:41:35;;;;;;;;;;;;;;;;;;10439685;28;20019;-71
2021/11/30 22:46:37;;;;;;;;;;;;;;;;;;10442241;28;19921;-72
2021/11/30 22:51:40;;;;;;;;;;;;;;;;;;10451761;28;19943;-73
2021/11/30 22:56:46;;;;;;;0.10;0.10;;;;;;;;;;10441725;28;20461;-72
2021/11/30 23:01:49;;;;;;;0.00;0.00;;;;;;;;;;10447923;28;20075;-74
2021/11/30 23:06:52;;;;;;;0.20;0.20;;;;;;;;;;10448767;28;20056;-73
2021/11/30 23:11:57;;;;;;;0.30;0.30;;;;;;;;;;10449415;28;20048;-73
2021/11/30 23:16:59;;;;;;;;;;;;;;;;;;10448118;28;20084;-73
2021/11/30 23:22:08;;;;;;;0.47;0.20;;;;;;;;;;10449479;28;19928;-72
2021/11/30 23:27:13;;;;;;;0.10;0.10;;;;;;;;;;10442099;28;20049;-71
2021/11/30 23:32:15;;;;;;;;;;;;;;;;;;10448344;28;20167;-72
2021/11/30 23:37:18;;;;;;;0.27;0.27;;;;;;;;;;10450651;28;20372;-73
2021/11/30 23:42:23;;;;;;;0.30;0.30;;;;;;;;;;10447062;28;20128;-72
2021/11/30 23:47:26;;;;;;;0.28;0.28;;;;;;;;;;10443106;28;20766;-73
2021/11/30 23:52:29;;;;;;;0.50;0.25;;;;;;;;;;10448654;28;20045;-72
2021/11/30 23:57:33;;;;;;;0.20;0.20;;;;;;;;;;10444304;28;20056;-71
